Time;durP1;ratioP1;P1;durP2;ratioP2;P2;SDS_P1;SDS_P2;PMS_P1;PMS_P2;Temp;Humidity;BMP_temperature;BMP_pressure;BME280_temperature;BME280_humidity;BME280_pressure;Samples;Min_cycle;Max_cycle;Signal;HPM_P1;HPM_P2
2021/04/20 05:00:19;;;;;;;12.33;11.10;;;;;;;6.99;94.83;99797.55;1852659;77;22971;-59
2021/04/20 05:02:48;;;;;;;11.60;10.30;;;;;;;7.00;94.70;99797.48;1818997;78;21039;-63
2021/04/20 05:05:18;;;;;;;11.83;10.50;;;;;;;7.10;94.30;99799.20;1814809;78;22151;-58
2021/04/20 05:07:47;;;;;;;13.65;10.28;;;;;;;7.17;94.09;99792.84;1779552;78;21065;-60
2021/04/20 05:10:15;;;;;;;11.22;9.43;;;;;;;7.27;94.13;99788.89;1733383;81;21626;-59
2021/04/20 05:12:44;;;;;;;13.03;10.25;;;;;;;7.41;93.57;99785.66;1739019;81;21102;-59
2021/04/20 05:15:15;;;;;;;12.82;9.53;;;;;;;7.52;93.23;99786.00;1742599;81;21011;-60
2021/04/20 05:17:44;;;;;;;11.28;9.88;;;;;;;7.64;92.60;99787.98;1743865;81;21262;-58
2021/04/20 05:20:17;;;;;;;11.48;8.95;;;;;;;7.75;92.46;99784.89;1763710;80;21020;-62
2021/04/20 05:22:46;;;;;;;9.93;8.88;;;;;;;7.86;92.21;99780.48;1766405;80;20962;-59
2021/04/20 05:25:17;;;;;;;9.48;8.58;;;;;;;8.00;91.25;99789.70;1740662;81;21048;-66
2021/04/20 05:27:50;;;;;;;12.28;9.38;;;;;;;8.10;90.36;99779.25;1737652;81;20989;-61
2021/04/20 05:30:19;;;;;;;9.73;8.68;;;;;;;8.22;89.82;99781.23;1740556;81;21418;-60
2021/04/20 05:32:52;;;;;;;9.90;8.90;;;;;;;8.34;88.81;99778.06;1742335;81;20958;-64
2021/04/20 05:35:22;;;;;;;9.93;8.33;;;;;;;8.46;88.19;99774.44;1742176;81;22154;-59
2021/04/20 05:37:51;;;;;;;9.60;8.60;;;;;;;8.59;87.56;99777.63;1795459;79;21053;-67
2021/04/20 05:40:26;;;;;;;10.78;9.30;;;;;;;8.71;86.47;99775.31;1781348;79;21187;-66
2021/04/20 05:42:56;;;;;;;14.18;8.68;;;;;;;8.81;86.14;99776.02;1781720;79;21193;-59
2021/04/20 05:45:24;;;;;;;10.20;8.33;;;;;;;8.90;85.26;99772.11;1740881;81;21606;-71
2021/04/20 05:47:53;;;;;;;8.40;7.45;;;;;;;8.97;84.43;99774.30;1751525;81;20979;-63
2021/04/20 05:50:28;;;;;;;9.73;8.00;;;;;;;9.02;82.79;99774.05;1751602;81;21595;-63
2021/04/20 05:52:58;;;;;;;9.28;8.05;;;;;;;9.02;82.44;99771.45;1752092;81;21512;-64
2021/04/20 05:55:27;;;;;;;9.00;8.10;;;;;;;9.05;82.70;99764.80;1750100;81;21381;-68
2021/04/20 05:57:55;;;;;;;9.05;7.87;;;;;;;9.16;81.97;99769.42;1743924;81;21674;-60
2021/04/20 06:00:24;;;;;;;9.20;7.53;;;;;;;9.34;80.87;99759.30;1748077;81;21679;-74
2021/04/20 06:02:54;;;;;;;10.60;7.20;;;;;;;9.56;78.83;99771.49;1747989;81;21516;-61
2021/04/20 06:05:26;;;;;;;11.18;7.55;;;;;;;9.77;78.26;99765.52;1813627;78;21616;-61
2021/04/20 06:07:57;;;;;;;8.13;7.42;;;;;;;10.00;77.73;99767.63;1805922;79;21378;-65
2021/04/20 06:10:27;;;;;;;7.72;6.47;;;;;;;10.29;77.25;99769.03;1804937;78;21041;-62
2021/04/20 06:12:55;;;;;;;7.10;6.37;;;;;;;10.57;76.37;99765.61;1810215;78;21548;-66
2021/04/20 06:15:24;;;;;;;8.70;7.17;;;;;;;10.76;73.51;99765.34;1740711;81;21492;-61
2021/04/20 06:17:55;;;;;;;7.33;6.62;;;;;;;10.83;73.19;99758.80;1805650;78;21139;-63
2021/04/20 06:20:24;;;;;;;7.83;6.60;;;;;;;10.82;71.56;99759.27;1818399;78;21343;-63
2021/04/20 06:22:55;;;;;;;7.37;6.62;;;;;;;10.72;71.81;99767.30;1804236;78;21044;-67
2021/04/20 06:25:23;;;;;;;7.85;7.10;;;;;;;10.58;71.71;99765.52;1739994;81;21018;-60
2021/04/20 06:27:52;;;;;;;7.47;6.78;;;;;;;10.45;72.25;99763.27;1805749;78;21673;-70
2021/04/20 06:30:22;;;;;;;9.03;7.15;;;;;;;10.33;72.27;99779.17;1744019;81;21587;-66
2021/04/20 06:32:50;;;;;;;7.58;6.87;;;;;;;10.20;72.98;99762.60;1736001;81;22083;-61
2021/04/20 06:35:22;;;;;;;9.10;7.40;;;;;;;10.14;73.25;99765.99;1742641;81;21587;-60
2021/04/20 06:37:51;;;;;;;8.13;6.80;;;;;;;10.06;73.50;99762.99;1771697;79;21026;-61
2021/04/20 06:40:34;;;;;;;8.78;7.00;;;;;;;10.03;73.39;99758.80;1772558;79;20954;-63
2021/04/20 06:43:05;;;;;;;7.83;7.08;;;;;;;10.04;73.94;99758.72;1813849;78;21705;-65
2021/04/20 06:45:50;;;;;;;8.10;7.30;;;;;;;10.08;74.05;99757.23;1747564;82;21149;-63
2021/04/20 06:48:53;;;;;;;8.28;7.53;;;;;;;10.13;73.66;99752.61;1728306;79;21496;-60
2021/04/20 06:51:40;;;;;;;9.73;7.47;;;;;;;10.10;73.71;99756.22;1744444;81;21058;-63
2021/04/20 06:54:30;;;;;;;8.28;7.47;;;;;;;10.13;73.77;99752.61;1744700;81;21015;-60
2021/04/20 06:57:15;;;;;;;7.92;7.12;;;;;;;10.12;73.25;99747.03;1812291;78;21033;-62
2021/04/20 07:00:08;;;;;;;9.85;7.78;;;;;;;10.12;73.36;99750.47;1788943;78;22008;-63
2021/04/20 07:02:55;;;;;;;10.53;8.30;;;;;;;10.12;73.10;99752.23;1794390;79;21646;-60
2021/04/20 07:05:42;;;;;;;10.58;8.00;;;;;;;10.18;72.96;99743.61;1808288;79;21058;-62
2021/04/20 07:08:51;;;;;;;8.63;7.83;;;;;;;10.30;73.27;99735.11;1804721;79;21579;-60
2021/04/20 07:11:19;;;;;;;8.53;7.47;;;;;;;10.53;73.26;99727.20;1737761;82;21955;-69
2021/04/20 07:13:50;;;;;;;7.75;7.05;;;;;;;10.74;71.66;99721.63;1725859;82;21389;-64
2021/04/20 07:16:26;;;;;;;10.45;8.30;;;;;;;10.81;70.44;99739.83;1780994;79;20947;-67
2021/04/20 07:19:21;;;;;;;10.95;7.65;;;;;;;10.80;69.95;99723.36;1761557;80;21493;-68
2021/04/20 07:22:01;;;;;;;8.50;7.50;;;;;;;10.86;70.10;99721.69;1759805;79;20947;-71
2021/04/20 07:24:47;;;;;;;8.40;7.60;;;;;;;10.95;69.85;99721.12;1757990;79;21508;-67
2021/04/20 07:28:12;;;;;;;10.10;9.13;;;;;;;10.98;69.32;99727.91;1738411;80;22358;-62
2021/04/20 07:31:19;;;;;;;8.10;6.78;;;;;;;10.92;68.67;99720.47;1767863;79;21120;-64
2021/04/20 07:34:15;;;;;;;8.43;7.53;;;;;;;10.77;68.75;99726.19;1746024;81;24292;-66
2021/04/20 07:37:24;;;;;;;11.55;7.62;;;;;;;10.65;69.62;99721.26;1743994;81;20997;-65
2021/04/20 07:40:20;;;;;;;7.72;7.03;;;;;;;10.67;70.41;99724.61;1769689;81;21615;-60
2021/04/20 07:43:30;;;;;;;12.65;9.68;;;;;;;10.71;70.68;99712.23;1758232;81;21818;-65
2021/04/20 07:46:18;;;;;;;8.33;7.25;;;;;;;10.71;70.99;99721.81;1751107;79;21830;-61
2021/04/20 07:49:00;;;;;;;8.30;7.20;;;;;;;10.65;70.35;99719.95;1756411;79;21061;-67
2021/04/20 07:51:53;;;;;;;8.15;7.35;;;;;;;10.53;70.68;99715.95;1739418;82;21501;-66
2021/04/20 07:54:58;;;;;;;11.88;7.90;;;;;;;10.46;71.01;99718.09;1761253;80;21570;-68
2021/04/20 07:57:40;;;;;;;12.65;8.20;;;;;;;10.36;71.10;99714.39;1782765;79;22086;-68
2021/04/20 08:00:31;;;;;;;8.28;7.35;;;;;;;10.24;71.70;99716.42;1704335;82;21560;-70
2021/04/20 08:03:27;;;;;;;7.28;6.62;;;;;;;10.22;71.87;99713.91;1735696;82;21579;-62
2021/04/20 08:06:02;;;;;;;8.90;7.00;;;;;;;10.24;71.40;99713.82;1717148;82;21638;-65
2021/04/20 08:08:40;;;;;;;7.50;6.80;;;;;;;10.23;70.72;99712.98;1718010;82;21014;-69
2021/04/20 08:11:32;;;;;;;8.60;7.70;;;;;;;10.25;70.66;99711.59;1718070;82;21380;-60
2021/04/20 08:14:49;;;;;;;7.15;6.45;;;;;;;10.26;70.24;99714.10;1720965;82;21049;-66
2021/04/20 08:17:34;;;;;;;8.00;7.30;;;;;;;10.24;70.12;99706.85;1713046;82;21647;-62
2021/04/20 08:20:10;;;;;;;7.97;6.58;;;;;;;10.17;70.41;99702.91;1712085;82;21097;-62
2021/04/20 08:22:39;;;;;;;8.35;7.33;;;;;;;10.16;70.39;99704.30;1715034;82;21590;-61
2021/04/20 08:25:13;;;;;;;7.12;6.35;;;;;;;10.17;70.53;99700.77;1718441;82;21505;-63
2021/04/20 08:27:57;;;;;;;8.45;7.58;;;;;;;10.17;70.26;99694.27;1711542;82;21061;-60
2021/04/20 08:31:03;;;;;;;8.10;7.33;;;;;;;10.19;70.26;99697.18;1708665;84;21573;-65
2021/04/20 08:33:34;;;;;;;8.35;7.35;;;;;;;10.25;69.44;99692.08;1708736;84;21192;-62
2021/04/20 08:36:12;;;;;;;9.20;7.72;;;;;;;10.31;69.42;99692.55;1708096;84;21228;-63
2021/04/20 08:41:52;;;;;;;8.83;7.42;;;;;;;10.49;68.59;99682.77;1842774;77;22800;-60
2021/04/20 08:44:39;;;;;;;10.93;7.28;;;;;;;10.52;68.37;99682.58;1812580;79;21554;-64
2021/04/20 08:47:38;;;;;;;10.10;7.95;;;;;;;10.62;68.41;99679.78;1788315;79;21951;-64
2021/04/20 08:50:23;;;;;;;8.33;7.50;;;;;;;10.72;67.95;99674.85;1804717;77;20962;-65
2021/04/20 08:53:03;;;;;;;7.17;6.58;;;;;;;10.80;67.90;99676.48;1794180;79;20994;-67
2021/04/20 08:56:20;;;;;;;7.83;7.10;;;;;;;10.88;67.58;99678.14;1806482;79;20949;-70
2021/04/20 08:59:08;;;;;;;8.13;7.33;;;;;;;11.00;67.04;99672.16;1806633;79;21033;-61
2021/04/20 09:02:08;;;;;;;7.80;7.10;;;;;;;11.14;65.99;99669.99;1798288;79;21190;-66
2021/04/20 09:05:06;;;;;;;7.53;6.40;;;;;;;11.31;66.49;99674.09;1733929;82;21027;-71
2021/04/20 09:08:17;;;;;;;8.33;7.55;;;;;;;11.58;66.34;99674.08;1711650;81;21578;-62
2021/04/20 09:10:58;;;;;;;7.45;6.65;;;;;;;11.93;64.45;99676.51;1739441;81;21768;-61
2021/04/20 09:13:30;;;;;;;9.65;7.55;;;;;;;12.11;62.49;99677.48;1762296;81;21014;-73
2021/04/20 09:16:07;;;;;;;8.88;7.55;;;;;;;12.15;62.74;99669.34;1736484;82;22164;-68
2021/04/20 09:18:43;;;;;;;8.70;7.90;;;;;;;12.22;61.68;99668.46;1698967;83;21555;-63
2021/04/20 09:21:23;;;;;;;9.18;7.87;;;;;;;12.21;60.54;99667.63;1730495;82;21442;-66
2021/04/20 09:24:00;;;;;;;8.13;7.33;;;;;;;12.15;61.02;99657.60;1738287;82;21552;-60
2021/04/20 09:26:58;;;;;;;7.28;6.58;;;;;;;12.06;61.69;99659.53;1719011;82;21017;-60
2021/04/20 09:29:59;;;;;;;6.97;6.37;;;;;;;12.01;62.10;99655.09;1737046;82;22101;-60
2021/04/20 09:32:40;;;;;;;7.47;6.62;;;;;;;11.94;62.17;99656.47;1735871;82;20961;-61
2021/04/20 09:35:11;;;;;;;7.72;7.03;;;;;;;11.86;62.19;99656.98;1742875;81;21112;-64
2021/04/20 09:37:40;;;;;;;7.90;7.08;;;;;;;11.78;62.20;99652.75;1701172;82;21102;-58
2021/04/20 09:40:15;;;;;;;8.03;7.20;;;;;;;11.72;62.53;99646.59;1704654;82;20962;-67
2021/04/20 09:42:48;;;;;;;7.42;6.72;;;;;;;11.67;62.32;99652.59;1728026;81;21452;-67
2021/04/20 09:45:37;;;;;;;7.28;6.28;;;;;;;11.63;62.52;99645.43;1733910;82;21635;-66
2021/04/20 09:48:22;;;;;;;7.20;6.50;;;;;;;11.65;62.80;99644.03;1736195;82;21559;-64
2021/04/20 09:50:55;;;;;;;7.60;6.58;;;;;;;11.62;62.60;99641.63;1730881;82;21708;-64
2021/04/20 09:53:57;;;;;;;7.40;6.70;;;;;;;11.61;62.85;99640.78;1731013;82;21002;-62
2021/04/20 09:56:42;;;;;;;6.97;6.28;;;;;;;11.63;62.61;99636.77;1730859;82;22111;-69
2021/04/20 09:59:37;;;;;;;6.75;6.15;;;;;;;11.67;61.69;99643.45;1703458;82;21067;-68
2021/04/20 10:02:43;;;;;;;7.12;6.05;;;;;;;11.70;61.53;99628.44;1722746;82;21040;-62
2021/04/20 10:05:36;;;;;;;6.95;6.35;;;;;;;11.82;61.26;99625.98;1732336;82;21571;-63
2021/04/20 10:08:38;;;;;;;6.70;6.05;;;;;;;12.02;60.98;99626.75;1724059;82;21069;-64
2021/04/20 10:11:26;;;;;;;7.95;6.75;;;;;;;12.15;61.10;99622.37;1723400;82;22106;-73
2021/04/20 10:14:25;;;;;;;7.12;6.42;;;;;;;12.33;60.84;99624.18;1718951;82;21056;-70
2021/04/20 10:17:16;;;;;;;6.55;5.95;;;;;;;12.53;59.86;99618.84;1730674;82;21659;-60
2021/04/20 10:19:53;;;;;;;7.90;6.62;;;;;;;12.76;58.41;99617.23;1734702;82;21183;-59
2021/04/20 10:22:53;;;;;;;6.78;6.15;;;;;;;12.88;57.88;99606.70;1720486;82;21012;-67
2021/04/20 10:25:40;;;;;;;7.25;6.55;;;;;;;12.93;57.10;99606.38;1721290;82;21217;-64
2021/04/20 10:28:25;;;;;;;6.53;5.92;;;;;;;12.92;56.22;99599.48;1721919;82;21607;-61
2021/04/20 10:30:56;;;;;;;7.37;6.67;;;;;;;12.87;56.90;99595.89;1726958;82;21529;-61
2021/04/20 10:33:24;;;;;;;7.08;6.47;;;;;;;12.90;57.91;99598.28;1731930;82;21480;-60
2021/04/20 10:36:00;;;;;;;9.13;7.22;;;;;;;12.99;57.61;99596.78;1726997;83;21516;-60
2021/04/20 10:38:32;;;;;;;7.10;6.35;;;;;;;13.00;57.03;99602.38;1757534;81;21179;-60
2021/04/20 10:41:02;;;;;;;9.30;6.78;;;;;;;12.95;57.14;99601.40;1737969;81;21515;-61
2021/04/20 10:43:31;;;;;;;6.62;6.03;;;;;;;12.97;57.19;99598.67;1758235;81;20954;-60
2021/04/20 10:46:08;;;;;;;8.80;8.00;;;;;;;13.01;57.06;99593.59;1730524;81;20920;-59
2021/04/20 10:48:37;;;;;;;7.33;6.70;;;;;;;13.05;58.23;99593.73;1745210;81;21155;-70
2021/04/20 10:51:07;;;;;;;8.08;7.30;;;;;;;13.02;57.86;99586.94;1741126;82;22236;-67
2021/04/20 10:53:35;;;;;;;11.78;7.72;;;;;;;12.91;57.97;99588.66;1745619;81;21646;-66
2021/04/20 10:56:13;;;;;;;10.60;9.58;;;;;;;12.79;59.04;99605.25;1729768;83;20910;-63
2021/04/20 10:58:47;;;;;;;12.95;9.00;;;;;;;12.63;59.81;99593.75;1757769;81;20926;-64
2021/04/20 11:01:21;;;;;;;9.83;8.40;;;;;;;12.41;60.47;99586.59;1749772;81;21514;-67
2021/04/20 11:03:51;;;;;;;9.38;8.33;;;;;;;12.24;60.91;99587.80;1735849;82;21211;-65
2021/04/20 11:07:21;;;;;;;12.82;8.45;;;;;;;12.08;61.24;99584.58;1741441;81;21515;-68
2021/04/20 11:09:51;;;;;;;10.55;8.90;;;;;;;11.92;61.94;99580.91;1754930;81;21017;-62
2021/04/20 11:12:19;;;;;;;8.78;7.85;;;;;;;11.77;63.05;99580.64;1700901;83;21004;-69
2021/04/20 11:14:51;;;;;;;10.43;8.53;;;;;;;11.73;63.13;99581.76;1744689;81;20994;-70
2021/04/20 11:17:47;;;;;;;8.50;7.33;;;;;;;11.69;62.95;99578.98;1743495;81;21252;-65
2021/04/20 11:20:33;;;;;;;7.78;7.08;;;;;;;11.67;63.16;99583.00;1746637;81;21769;-70
2021/04/20 11:23:12;;;;;;;10.90;7.37;;;;;;;11.68;62.57;99579.92;1746994;81;21171;-63
2021/04/20 11:25:59;;;;;;;9.58;7.35;;;;;;;11.69;62.44;99578.98;1750025;81;21686;-62
2021/04/20 11:28:51;;;;;;;9.43;7.50;;;;;;;11.70;62.14;99572.84;1758208;81;21607;-69
2021/04/20 11:31:31;;;;;;;8.85;7.90;;;;;;;11.72;61.78;99574.87;1736082;81;21368;-60
2021/04/20 11:34:04;;;;;;;8.33;7.53;;;;;;;11.69;61.52;99575.08;1734793;81;22123;-62
2021/04/20 11:36:52;;;;;;;8.40;7.58;;;;;;;11.65;61.39;99564.48;1750086;81;21087;-66
2021/04/20 11:39:25;;;;;;;10.30;8.55;;;;;;;11.62;60.89;99562.08;1738942;81;21133;-61
2021/04/20 11:42:06;;;;;;;9.05;7.92;;;;;;;11.60;61.62;99566.56;1743262;81;21494;-61
2021/04/20 11:44:46;;;;;;;17.87;8.73;;;;;;;11.62;61.49;99560.78;1722803;82;22175;-62
2021/04/20 11:47:15;;;;;;;10.38;9.35;;;;;;;11.66;61.92;99576.59;1742253;82;21093;-60
2021/04/20 11:49:52;;;;;;;13.22;11.40;;;;;;;11.65;63.17;99563.18;1740385;82;21078;-64
2021/04/20 11:52:24;;;;;;;16.35;12.07;;;;;;;11.59;63.91;99563.62;1746806;80;21379;-65
2021/04/20 11:55:07;;;;;;;14.15;10.43;;;;;;;11.49;64.52;99561.27;1749861;82;21656;-71
2021/04/20 11:57:36;;;;;;;10.53;9.23;;;;;;;11.36;64.34;99561.25;1748749;82;21145;-70
2021/04/20 12:00:09;;;;;;;13.38;9.95;;;;;;;11.18;64.93;99582.87;1711923;82;21037;-67
2021/04/20 12:02:38;;;;;;;14.65;10.35;;;;;;;10.97;65.79;99564.71;1722869;82;21041;-63
2021/04/20 12:05:11;;;;;;;13.30;9.53;;;;;;;10.80;67.07;99563.66;1733522;82;21682;-68
2021/04/20 12:07:40;;;;;;;10.08;8.98;;;;;;;10.69;67.66;99557.86;1731477;82;21202;-60
2021/04/20 12:10:18;;;;;;;9.73;8.73;;;;;;;10.64;67.13;99556.85;1732768;82;22144;-60
2021/04/20 12:12:52;;;;;;;9.20;8.30;;;;;;;10.57;66.12;99554.73;1737743;82;21674;-63
2021/04/20 12:15:20;;;;;;;9.25;8.15;;;;;;;10.46;66.61;99558.47;1730849;82;21021;-66
2021/04/20 12:17:49;;;;;;;9.43;8.43;;;;;;;10.35;67.16;99553.50;1734582;82;21566;-64
2021/04/20 12:20:22;;;;;;;11.18;8.43;;;;;;;10.25;67.60;99544.59;1738093;82;21559;-67
2021/04/20 12:22:56;;;;;;;9.33;8.43;;;;;;;10.18;67.97;99546.33;1730306;82;21212;-61
2021/04/20 12:25:26;;;;;;;8.70;7.85;;;;;;;10.08;68.49;99548.66;1723150;82;21069;-60
2021/04/20 12:28:07;;;;;;;10.60;8.93;;;;;;;10.00;68.97;99544.39;1734361;82;21601;-62
2021/04/20 12:30:32;;;;;;;10.45;8.65;;;;;;;9.93;69.19;99550.92;1732081;82;21623;-63
2021/04/20 12:33:02;;;;;;;7.55;6.85;;;;;;;9.86;69.57;99546.56;1731050;82;21178;-65
2021/04/20 12:35:32;;;;;;;6.20;5.60;;;;;;;9.80;67.49;99549.98;1735776;82;21485;-61
2021/04/20 12:38:02;;;;;;;7.97;5.70;;;;;;;9.71;66.69;99544.88;1741767;82;21068;-60
2021/04/20 12:40:31;;;;;;;6.17;5.58;;;;;;;9.64;66.68;99543.56;1701402;82;21492;-64
2021/04/20 12:43:02;;;;;;;7.55;5.00;;;;;;;9.58;67.04;99544.80;1779638;79;21020;-68
2021/04/20 12:45:37;;;;;;;6.35;5.85;;;;;;;9.55;67.32;99541.55;1779988;79;21012;-66
2021/04/20 12:48:05;;;;;;;6.25;5.45;;;;;;;9.53;67.63;99542.09;1785571;79;22098;-58
2021/04/20 12:50:37;;;;;;;8.13;5.95;;;;;;;9.49;67.86;99538.84;1780503;79;20984;-65
2021/04/20 12:53:05;;;;;;;6.65;5.67;;;;;;;9.48;68.06;99542.37;1779870;79;21673;-60
2021/04/20 12:55:35;;;;;;;6.85;5.60;;;;;;;9.47;68.13;99538.09;1778997;79;21566;-61
2021/04/20 12:58:07;;;;;;;6.05;5.45;;;;;;;9.44;68.60;99541.34;1717786;83;21055;-65
2021/04/20 13:00:36;;;;;;;6.28;5.45;;;;;;;9.43;68.89;99538.37;1769742;79;21180;-68
2021/04/20 13:03:07;;;;;;;6.85;5.60;;;;;;;9.45;68.96;99540.41;1785902;79;21067;-67
2021/04/20 13:05:39;;;;;;;6.05;5.45;;;;;;;9.42;69.13;99534.93;1797327;79;20973;-61
2021/04/20 13:08:12;;;;;;;5.55;4.92;;;;;;;9.43;69.20;99531.41;1780251;79;21625;-67
2021/04/20 13:10:42;;;;;;;6.65;5.90;;;;;;;9.44;69.21;99531.78;1798003;79;21435;-63
2021/04/20 13:13:12;;;;;;;6.62;5.72;;;;;;;9.44;69.45;99530.94;1754899;79;21367;-62
2021/04/20 13:15:41;;;;;;;7.20;6.50;;;;;;;9.45;69.95;99530.02;1790071;79;21569;-69
2021/04/20 13:18:19;;;;;;;8.73;6.53;;;;;;;9.45;70.22;99522.22;1745550;79;21539;-69
2021/04/20 13:20:50;;;;;;;7.50;6.90;;;;;;;9.47;70.77;99523.80;1790819;79;21621;-69
2021/04/20 13:23:38;;;;;;;7.42;6.78;;;;;;;9.51;71.26;99520.56;1743139;79;21023;-62
2021/04/20 13:26:09;;;;;;;7.62;6.90;;;;;;;9.57;71.63;99503.30;1786677;79;22144;-66
2021/04/20 13:28:43;;;;;;;9.48;7.85;;;;;;;9.57;72.52;99508.50;1780091;79;21214;-60
2021/04/20 13:31:16;;;;;;;8.30;7.47;;;;;;;9.55;72.90;99505.99;1697188;83;21071;-63
2021/04/20 13:33:47;;;;;;;11.12;8.60;;;;;;;9.58;73.45;99500.61;1699900;83;21090;-58
2021/04/20 13:36:20;;;;;;;10.65;8.73;;;;;;;9.61;73.80;99501.70;1785684;79;21609;-63
2021/04/20 13:38:54;;;;;;;12.75;9.13;;;;;;;9.65;74.19;99500.59;1743637;81;21108;-61
2021/04/20 13:41:23;;;;;;;12.47;9.00;;;;;;;9.70;74.20;99504.20;1747613;81;21060;-59
2021/04/20 13:43:52;;;;;;;10.98;9.50;;;;;;;9.76;74.37;99498.64;1751716;81;21492;-65
2021/04/20 13:46:20;;;;;;;11.43;9.00;;;;;;;9.81;74.40;99497.06;1748695;81;21524;-69
2021/04/20 13:48:50;;;;;;;9.93;8.68;;;;;;;9.84;74.52;99500.31;1753427;81;20993;-68
2021/04/20 13:51:29;;;;;;;11.25;9.08;;;;;;;9.87;74.51;99500.13;1754153;81;22130;-63
2021/04/20 13:54:00;;;;;;;9.33;8.38;;;;;;;9.87;74.36;99500.59;1751795;81;21653;-63
2021/04/20 13:56:31;;;;;;;9.78;8.78;;;;;;;9.88;74.29;99513.50;1751830;81;21626;-60
2021/04/20 13:59:13;;;;;;;10.70;8.73;;;;;;;9.87;73.62;99510.52;1748278;81;21020;-62
2021/04/20 14:01:46;;;;;;;10.28;8.85;;;;;;;9.84;73.48;99513.31;1742222;81;21579;-65
2021/04/20 14:04:28;;;;;;;8.88;7.92;;;;;;;9.78;73.47;99506.34;1742441;81;21187;-62
2021/04/20 14:07:00;;;;;;;10.25;9.15;;;;;;;9.70;73.67;99515.44;1753173;81;21574;-67
2021/04/20 14:09:33;;;;;;;9.53;8.40;;;;;;;9.63;74.04;99506.34;1743051;81;20962;-62
2021/04/20 14:12:12;;;;;;;12.10;9.48;;;;;;;9.60;74.22;99513.48;1738840;82;21578;-60
2021/04/20 14:15:03;;;;;;;8.83;7.97;;;;;;;9.57;74.45;99504.60;1738906;82;21481;-60
2021/04/20 14:17:48;;;;;;;10.28;8.13;;;;;;;9.50;74.57;99505.43;1738742;81;22189;-64
2021/04/20 14:20:23;;;;;;;8.58;7.67;;;;;;;9.48;74.60;99515.08;1738222;81;21657;-67
2021/04/20 14:22:53;;;;;;;8.15;7.35;;;;;;;9.50;74.58;99505.89;1738781;81;20954;-67
